sensor_id;sensor_type;location;lat;lon;timestamp;P1;durP1;ratioP1;P2;durP2;ratioP2
35225;SDS011;21813;49.686;21.766;2022-08-04T00:00:07;10.95;;;8.25;;
35225;SDS011;21813;49.686;21.766;2022-08-04T00:03:00;14.75;;;9.95;;
35225;SDS011;21813;49.686;21.766;2022-08-04T00:05:40;12.10;;;9.02;;
35225;SDS011;21813;49.686;21.766;2022-08-04T00:10:47;9.70;;;8.48;;
35225;SDS011;21813;49.686;21.766;2022-08-04T00:13:16;14.07;;;8.82;;
35225;SDS011;21813;49.686;21.766;2022-08-04T00:15:50;9.88;;;8.10;;
35225;SDS011;21813;49.686;21.766;2022-08-04T00:18:26;10.65;;;7.85;;
35225;SDS011;21813;49.686;21.766;2022-08-04T00:20:59;12.85;;;7.63;;
35225;SDS011;21813;49.686;21.766;2022-08-04T00:25:58;13.27;;;8.13;;
35225;SDS011;21813;49.686;21.766;2022-08-04T00:28:24;10.77;;;7.85;;
35225;SDS011;21813;49.686;21.766;2022-08-04T00:30:53;11.45;;;8.48;;
35225;SDS011;21813;49.686;21.766;2022-08-04T00:33:19;14.50;;;8.77;;
35225;SDS011;21813;49.686;21.766;2022-08-04T00:35:49;11.25;;;8.40;;
35225;SDS011;21813;49.686;21.766;2022-08-04T00:38:18;10.80;;;7.63;;
35225;SDS011;21813;49.686;21.766;2022-08-04T00:40:49;11.90;;;7.60;;
35225;SDS011;21813;49.686;21.766;2022-08-04T00:54:00;11.55;;;7.80;;
35225;SDS011;21813;49.686;21.766;2022-08-04T00:59:43;9.32;;;8.10;;
35225;SDS011;21813;49.686;21.766;2022-08-04T01:02:30;9.18;;;7.82;;
35225;SDS011;21813;49.686;21.766;2022-08-04T01:08:59;11.65;;;7.68;;
35225;SDS011;21813;49.686;21.766;2022-08-04T01:14:47;9.35;;;7.10;;
35225;SDS011;21813;49.686;21.766;2022-08-04T01:17:54;11.27;;;7.20;;
35225;SDS011;21813;49.686;21.766;2022-08-04T01:20:30;10.82;;;7.78;;
35225;SDS011;21813;49.686;21.766;2022-08-04T01:26:24;9.70;;;7.20;;
35225;SDS011;21813;49.686;21.766;2022-08-04T01:29:11;9.38;;;7.97;;
35225;SDS011;21813;49.686;21.766;2022-08-04T01:37:07;7.63;;;6.70;;
35225;SDS011;21813;49.686;21.766;2022-08-04T01:39:56;7.32;;;6.38;;
35225;SDS011;21813;49.686;21.766;2022-08-04T01:45:02;10.73;;;7.50;;
35225;SDS011;21813;49.686;21.766;2022-08-04T01:47:33;8.27;;;7.13;;
35225;SDS011;21813;49.686;21.766;2022-08-04T01:50:04;12.85;;;7.78;;
35225;SDS011;21813;49.686;21.766;2022-08-04T01:52:34;8.45;;;7.25;;
35225;SDS011;21813;49.686;21.766;2022-08-04T01:55:05;12.13;;;7.63;;
35225;SDS011;21813;49.686;21.766;2022-08-04T01:57:44;8.38;;;7.55;;
35225;SDS011;21813;49.686;21.766;2022-08-04T02:11:35;11.50;;;7.22;;
35225;SDS011;21813;49.686;21.766;2022-08-04T02:14:05;9.75;;;7.45;;
35225;SDS011;21813;49.686;21.766;2022-08-04T02:19:39;8.18;;;7.38;;
35225;SDS011;21813;49.686;21.766;2022-08-04T02:22:24;10.98;;;7.13;;
35225;SDS011;21813;49.686;21.766;2022-08-04T02:25:07;15.88;;;8.80;;
35225;SDS011;21813;49.686;21.766;2022-08-04T02:27:54;8.45;;;7.53;;
35225;SDS011;21813;49.686;21.766;2022-08-04T02:30:23;12.60;;;7.45;;
35225;SDS011;21813;49.686;21.766;2022-08-04T02:33:07;10.95;;;6.88;;
35225;SDS011;21813;49.686;21.766;2022-08-04T02:35:38;10.95;;;7.90;;
35225;SDS011;21813;49.686;21.766;2022-08-04T02:38:23;9.48;;;7.35;;
35225;SDS011;21813;49.686;21.766;2022-08-04T02:40:55;9.68;;;7.30;;
35225;SDS011;21813;49.686;21.766;2022-08-04T02:43:24;12.15;;;7.78;;
35225;SDS011;21813;49.686;21.766;2022-08-04T02:45:55;7.63;;;6.93;;
35225;SDS011;21813;49.686;21.766;2022-08-04T02:48:25;11.88;;;7.50;;
35225;SDS011;21813;49.686;21.766;2022-08-04T02:50:52;10.48;;;8.30;;
35225;SDS011;21813;49.686;21.766;2022-08-04T02:53:20;10.85;;;7.35;;
35225;SDS011;21813;49.686;21.766;2022-08-04T02:55:48;10.70;;;7.72;;
35225;SDS011;21813;49.686;21.766;2022-08-04T02:58:16;11.82;;;8.75;;
35225;SDS011;21813;49.686;21.766;2022-08-04T03:00:44;9.20;;;8.18;;
35225;SDS011;21813;49.686;21.766;2022-08-04T03:03:30;12.60;;;8.75;;
35225;SDS011;21813;49.686;21.766;2022-08-04T03:14:14;12.07;;;9.77;;
35225;SDS011;21813;49.686;21.766;2022-08-04T03:28:11;10.90;;;9.80;;
35225;SDS011;21813;49.686;21.766;2022-08-04T03:48:08;19.25;;;11.18;;
35225;SDS011;21813;49.686;21.766;2022-08-04T04:00:04;16.10;;;11.65;;
35225;SDS011;21813;49.686;21.766;2022-08-04T04:02:40;15.45;;;11.18;;
35225;SDS011;21813;49.686;21.766;2022-08-04T04:19:03;15.13;;;10.32;;
35225;SDS011;21813;49.686;21.766;2022-08-04T04:28:13;12.23;;;10.07;;
35225;SDS011;21813;49.686;21.766;2022-08-04T04:41:41;17.23;;;10.05;;
35225;SDS011;21813;49.686;21.766;2022-08-04T04:44:25;12.63;;;9.70;;
35225;SDS011;21813;49.686;21.766;2022-08-04T04:50:09;14.70;;;8.98;;
35225;SDS011;21813;49.686;21.766;2022-08-04T04:52:46;17.50;;;9.25;;
35225;SDS011;21813;49.686;21.766;2022-08-04T04:55:23;12.15;;;8.50;;
35225;SDS011;21813;49.686;21.766;2022-08-04T04:57:55;11.90;;;8.38;;
35225;SDS011;21813;49.686;21.766;2022-08-04T05:12:55;8.07;;;7.13;;
35225;SDS011;21813;49.686;21.766;2022-08-04T05:15:35;8.95;;;7.18;;
35225;SDS011;21813;49.686;21.766;2022-08-04T05:18:05;13.15;;;7.15;;
35225;SDS011;21813;49.686;21.766;2022-08-04T05:20:38;9.23;;;6.93;;
35225;SDS011;21813;49.686;21.766;2022-08-04T05:26:06;18.38;;;7.05;;
35225;SDS011;21813;49.686;21.766;2022-08-04T05:31:11;10.65;;;6.55;;
35225;SDS011;21813;49.686;21.766;2022-08-04T05:33:42;7.10;;;6.25;;
35225;SDS011;21813;49.686;21.766;2022-08-04T05:36:32;13.40;;;7.72;;
35225;SDS011;21813;49.686;21.766;2022-08-04T05:39:02;7.15;;;5.78;;
35225;SDS011;21813;49.686;21.766;2022-08-04T05:41:30;9.70;;;5.97;;
35225;SDS011;21813;49.686;21.766;2022-08-04T05:43:59;8.85;;;5.82;;
35225;SDS011;21813;49.686;21.766;2022-08-04T05:46:26;7.00;;;5.40;;
35225;SDS011;21813;49.686;21.766;2022-08-04T05:48:53;11.30;;;6.22;;
35225;SDS011;21813;49.686;21.766;2022-08-04T05:51:21;7.70;;;6.20;;
35225;SDS011;21813;49.686;21.766;2022-08-04T05:53:48;6.97;;;5.82;;
35225;SDS011;21813;49.686;21.766;2022-08-04T05:56:32;8.23;;;5.78;;
35225;SDS011;21813;49.686;21.766;2022-08-04T05:59:06;6.25;;;5.55;;
35225;SDS011;21813;49.686;21.766;2022-08-04T06:01:35;6.60;;;5.43;;
35225;SDS011;21813;49.686;21.766;2022-08-04T06:04:02;6.20;;;5.03;;
35225;SDS011;21813;49.686;21.766;2022-08-04T06:06:32;9.52;;;5.88;;
35225;SDS011;21813;49.686;21.766;2022-08-04T06:08:59;7.70;;;5.22;;
35225;SDS011;21813;49.686;21.766;2022-08-04T06:11:26;9.32;;;5.30;;
35225;SDS011;21813;49.686;21.766;2022-08-04T06:13:57;7.93;;;5.30;;
35225;SDS011;21813;49.686;21.766;2022-08-04T06:16:28;6.93;;;5.75;;
35225;SDS011;21813;49.686;21.766;2022-08-04T06:19:12;7.90;;;5.10;;
35225;SDS011;21813;49.686;21.766;2022-08-04T06:21:42;8.02;;;5.18;;
35225;SDS011;21813;49.686;21.766;2022-08-04T06:24:11;6.32;;;4.93;;
35225;SDS011;21813;49.686;21.766;2022-08-04T06:26:40;6.60;;;5.32;;
35225;SDS011;21813;49.686;21.766;2022-08-04T06:29:24;5.05;;;4.50;;
35225;SDS011;21813;49.686;21.766;2022-08-04T06:32:23;6.00;;;4.88;;
35225;SDS011;21813;49.686;21.766;2022-08-04T06:34:56;5.93;;;4.22;;
35225;SDS011;21813;49.686;21.766;2022-08-04T06:37:25;7.10;;;4.28;;
35225;SDS011;21813;49.686;21.766;2022-08-04T06:39:51;4.68;;;4.18;;
35225;SDS011;21813;49.686;21.766;2022-08-04T06:42:20;6.32;;;4.75;;
35225;SDS011;21813;49.686;21.766;2022-08-04T06:44:55;5.90;;;4.07;;
35225;SDS011;21813;49.686;21.766;2022-08-04T06:47:28;6.07;;;4.30;;
35225;SDS011;21813;49.686;21.766;2022-08-04T06:50:05;6.80;;;4.13;;
35225;SDS011;21813;49.686;21.766;2022-08-04T06:52:53;5.30;;;3.90;;
35225;SDS011;21813;49.686;21.766;2022-08-04T07:04:19;8.15;;;4.30;;
35225;SDS011;21813;49.686;21.766;2022-08-04T07:06:45;6.45;;;4.13;;
35225;SDS011;21813;49.686;21.766;2022-08-04T07:09:13;4.55;;;3.53;;
35225;SDS011;21813;49.686;21.766;2022-08-04T07:12:40;7.32;;;3.65;;
35225;SDS011;21813;49.686;21.766;2022-08-04T07:15:08;5.85;;;3.20;;
35225;SDS011;21813;49.686;21.766;2022-08-04T07:17:35;3.53;;;3.10;;
35225;SDS011;21813;49.686;21.766;2022-08-04T07:26:08;6.97;;;3.15;;
35225;SDS011;21813;49.686;21.766;2022-08-04T07:29:15;2.85;;;2.50;;
35225;SDS011;21813;49.686;21.766;2022-08-04T07:38:12;4.75;;;2.10;;
35225;SDS011;21813;49.686;21.766;2022-08-04T07:40:45;5.75;;;2.80;;
35225;SDS011;21813;49.686;21.766;2022-08-04T07:43:13;4.63;;;2.50;;
35225;SDS011;21813;49.686;21.766;2022-08-04T07:45:41;3.95;;;2.28;;
35225;SDS011;21813;49.686;21.766;2022-08-04T07:48:08;3.80;;;2.70;;
35225;SDS011;21813;49.686;21.766;2022-08-04T07:50:36;5.28;;;2.42;;
35225;SDS011;21813;49.686;21.766;2022-08-04T07:56:51;4.20;;;2.53;;
35225;SDS011;21813;49.686;21.766;2022-08-04T07:59:18;2.13;;;1.92;;
35225;SDS011;21813;49.686;21.766;2022-08-04T08:01:44;2.08;;;1.75;;
35225;SDS011;21813;49.686;21.766;2022-08-04T08:04:11;3.10;;;1.75;;
35225;SDS011;21813;49.686;21.766;2022-08-04T08:06:41;5.28;;;1.58;;
35225;SDS011;21813;49.686;21.766;2022-08-04T08:09:11;3.63;;;1.90;;
35225;SDS011;21813;49.686;21.766;2022-08-04T08:11:44;9.40;;;1.90;;
35225;SDS011;21813;49.686;21.766;2022-08-04T08:14:11;3.70;;;1.98;;
35225;SDS011;21813;49.686;21.766;2022-08-04T08:16:38;3.35;;;1.90;;
35225;SDS011;21813;49.686;21.766;2022-08-04T08:19:05;5.07;;;1.73;;
35225;SDS011;21813;49.686;21.766;2022-08-04T08:21:31;3.03;;;1.55;;
35225;SDS011;21813;49.686;21.766;2022-08-04T08:23:58;4.82;;;1.63;;
35225;SDS011;21813;49.686;21.766;2022-08-04T08:26:25;2.10;;;1.90;;
35225;SDS011;21813;49.686;21.766;2022-08-04T08:28:51;3.10;;;1.92;;
35225;SDS011;21813;49.686;21.766;2022-08-04T08:31:17;2.42;;;2.08;;
35225;SDS011;21813;49.686;21.766;2022-08-04T08:33:46;5.18;;;1.90;;
35225;SDS011;21813;49.686;21.766;2022-08-04T08:36:24;4.07;;;2.00;;
35225;SDS011;21813;49.686;21.766;2022-08-04T08:41:48;7.45;;;2.50;;
35225;SDS011;21813;49.686;21.766;2022-08-04T08:47:23;2.35;;;1.90;;
35225;SDS011;21813;49.686;21.766;2022-08-04T09:01:15;1.90;;;1.63;;
35225;SDS011;21813;49.686;21.766;2022-08-04T09:12:52;1.67;;;1.58;;
35225;SDS011;21813;49.686;21.766;2022-08-04T09:18:33;3.78;;;1.75;;
35225;SDS011;21813;49.686;21.766;2022-08-04T09:21:17;3.65;;;1.63;;
35225;SDS011;21813;49.686;21.766;2022-08-04T09:29:26;1.80;;;1.70;;
35225;SDS011;21813;49.686;21.766;2022-08-04T09:37:47;3.00;;;1.70;;
35225;SDS011;21813;49.686;21.766;2022-08-04T09:44:36;3.63;;;1.45;;
35225;SDS011;21813;49.686;21.766;2022-08-04T09:47:45;2.17;;;1.60;;
35225;SDS011;21813;49.686;21.766;2022-08-04T09:50:37;1.75;;;1.33;;
35225;SDS011;21813;49.686;21.766;2022-08-04T09:58:49;2.80;;;1.80;;
35225;SDS011;21813;49.686;21.766;2022-08-04T10:01:24;1.73;;;1.15;;
35225;SDS011;21813;49.686;21.766;2022-08-04T10:04:02;4.45;;;1.30;;
35225;SDS011;21813;49.686;21.766;2022-08-04T10:07:41;3.72;;;1.50;;
35225;SDS011;21813;49.686;21.766;2022-08-04T10:21:06;2.78;;;1.17;;
35225;SDS011;21813;49.686;21.766;2022-08-04T10:26:55;1.67;;;1.30;;
35225;SDS011;21813;49.686;21.766;2022-08-04T10:29:44;1.67;;;1.23;;
35225;SDS011;21813;49.686;21.766;2022-08-04T10:40:59;1.73;;;1.20;;
35225;SDS011;21813;49.686;21.766;2022-08-04T10:46:43;1.30;;;1.20;;
35225;SDS011;21813;49.686;21.766;2022-08-04T10:49:23;3.60;;;1.20;;
35225;SDS011;21813;49.686;21.766;2022-08-04T10:56:58;2.88;;;1.23;;
35225;SDS011;21813;49.686;21.766;2022-08-04T11:02:35;3.88;;;1.63;;
35225;SDS011;21813;49.686;21.766;2022-08-04T11:05:28;1.50;;;1.33;;
35225;SDS011;21813;49.686;21.766;2022-08-04T11:08:04;1.50;;;1.40;;
35225;SDS011;21813;49.686;21.766;2022-08-04T11:11:09;1.80;;;1.15;;
35225;SDS011;21813;49.686;21.766;2022-08-04T11:13:36;1.95;;;1.40;;
35225;SDS011;21813;49.686;21.766;2022-08-04T11:22:33;1.08;;;1.08;;
35225;SDS011;21813;49.686;21.766;2022-08-04T11:30:39;3.95;;;1.15;;
35225;SDS011;21813;49.686;21.766;2022-08-04T11:36:09;2.85;;;1.25;;
35225;SDS011;21813;49.686;21.766;2022-08-04T11:41:56;1.35;;;1.05;;
35225;SDS011;21813;49.686;21.766;2022-08-04T11:44:48;1.83;;;1.20;;
35225;SDS011;21813;49.686;21.766;2022-08-04T11:47:19;4.70;;;1.27;;
35225;SDS011;21813;49.686;21.766;2022-08-04T11:50:04;3.03;;;1.20;;
35225;SDS011;21813;49.686;21.766;2022-08-04T11:52:39;1.13;;;0.85;;
35225;SDS011;21813;49.686;21.766;2022-08-04T11:55:08;3.90;;;1.00;;
35225;SDS011;21813;49.686;21.766;2022-08-04T11:57:37;4.50;;;1.42;;
35225;SDS011;21813;49.686;21.766;2022-08-04T12:00:05;2.17;;;1.13;;
35225;SDS011;21813;49.686;21.766;2022-08-04T12:02:49;2.50;;;1.20;;
35225;SDS011;21813;49.686;21.766;2022-08-04T12:05:23;1.95;;;0.98;;
35225;SDS011;21813;49.686;21.766;2022-08-04T12:11:08;1.35;;;0.98;;
35225;SDS011;21813;49.686;21.766;2022-08-04T12:16:35;3.10;;;0.90;;
35225;SDS011;21813;49.686;21.766;2022-08-04T12:19:20;6.22;;;0.82;;
35225;SDS011;21813;49.686;21.766;2022-08-04T12:21:55;1.90;;;1.00;;
35225;SDS011;21813;49.686;21.766;2022-08-04T12:26:56;5.53;;;1.00;;
35225;SDS011;21813;49.686;21.766;2022-08-04T12:29:24;2.22;;;0.85;;
35225;SDS011;21813;49.686;21.766;2022-08-04T12:32:15;4.38;;;1.00;;
35225;SDS011;21813;49.686;21.766;2022-08-04T12:34:48;2.45;;;0.77;;
35225;SDS011;21813;49.686;21.766;2022-08-04T12:37:43;2.92;;;0.80;;
35225;SDS011;21813;49.686;21.766;2022-08-04T12:40:24;1.73;;;0.93;;
35225;SDS011;21813;49.686;21.766;2022-08-04T12:42:54;1.88;;;0.90;;
35225;SDS011;21813;49.686;21.766;2022-08-04T12:45:34;1.23;;;0.90;;
35225;SDS011;21813;49.686;21.766;2022-08-04T12:48:00;4.05;;;0.70;;
35225;SDS011;21813;49.686;21.766;2022-08-04T12:50:30;2.15;;;0.90;;
35225;SDS011;21813;49.686;21.766;2022-08-04T12:52:58;2.30;;;0.90;;
35225;SDS011;21813;49.686;21.766;2022-08-04T12:55:24;1.70;;;1.10;;
35225;SDS011;21813;49.686;21.766;2022-08-04T12:57:53;2.30;;;0.98;;
35225;SDS011;21813;49.686;21.766;2022-08-04T13:00:22;0.75;;;0.75;;
35225;SDS011;21813;49.686;21.766;2022-08-04T13:03:09;1.20;;;0.82;;
35225;SDS011;21813;49.686;21.766;2022-08-04T13:05:41;2.97;;;0.68;;
35225;SDS011;21813;49.686;21.766;2022-08-04T13:08:08;1.02;;;0.80;;
35225;SDS011;21813;49.686;21.766;2022-08-04T13:10:37;1.42;;;0.93;;
35225;SDS011;21813;49.686;21.766;2022-08-04T13:13:16;0.82;;;0.75;;
35225;SDS011;21813;49.686;21.766;2022-08-04T13:15:56;3.47;;;1.00;;
35225;SDS011;21813;49.686;21.766;2022-08-04T13:19:14;3.08;;;0.95;;
35225;SDS011;21813;49.686;21.766;2022-08-04T13:25:01;1.10;;;0.80;;
35225;SDS011;21813;49.686;21.766;2022-08-04T13:27:27;1.95;;;1.05;;
35225;SDS011;21813;49.686;21.766;2022-08-04T13:29:54;3.85;;;1.17;;
35225;SDS011;21813;49.686;21.766;2022-08-04T13:32:22;4.32;;;1.45;;
35225;SDS011;21813;49.686;21.766;2022-08-04T13:34:50;1.35;;;1.25;;
35225;SDS011;21813;49.686;21.766;2022-08-04T13:37:19;1.35;;;0.95;;
35225;SDS011;21813;49.686;21.766;2022-08-04T13:39:50;2.35;;;1.20;;
35225;SDS011;21813;49.686;21.766;2022-08-04T13:42:16;3.35;;;1.60;;
35225;SDS011;21813;49.686;21.766;2022-08-04T13:44:47;10.32;;;1.50;;
35225;SDS011;21813;49.686;21.766;2022-08-04T13:50:44;4.25;;;1.10;;
35225;SDS011;21813;49.686;21.766;2022-08-04T13:53:15;5.53;;;0.95;;
35225;SDS011;21813;49.686;21.766;2022-08-04T13:55:42;1.42;;;0.77;;
35225;SDS011;21813;49.686;21.766;2022-08-04T13:58:22;1.83;;;1.33;;
35225;SDS011;21813;49.686;21.766;2022-08-04T14:00:57;3.63;;;1.30;;
35225;SDS011;21813;49.686;21.766;2022-08-04T14:03:28;1.73;;;1.13;;
35225;SDS011;21813;49.686;21.766;2022-08-04T14:06:13;3.15;;;1.27;;
35225;SDS011;21813;49.686;21.766;2022-08-04T14:08:54;1.67;;;1.10;;
35225;SDS011;21813;49.686;21.766;2022-08-04T14:11:39;0.93;;;0.82;;
35225;SDS011;21813;49.686;21.766;2022-08-04T14:14:25;3.25;;;1.10;;
35225;SDS011;21813;49.686;21.766;2022-08-04T14:19:25;1.20;;;1.02;;
35225;SDS011;21813;49.686;21.766;2022-08-04T14:21:52;2.58;;;1.20;;
35225;SDS011;21813;49.686;21.766;2022-08-04T14:24:28;2.63;;;1.20;;
35225;SDS011;21813;49.686;21.766;2022-08-04T14:26:58;1.30;;;1.00;;
35225;SDS011;21813;49.686;21.766;2022-08-04T14:29:25;1.58;;;1.08;;
35225;SDS011;21813;49.686;21.766;2022-08-04T14:32:02;1.95;;;1.00;;
35225;SDS011;21813;49.686;21.766;2022-08-04T14:34:31;1.27;;;0.90;;
35225;SDS011;21813;49.686;21.766;2022-08-04T14:37:07;2.38;;;1.00;;
35225;SDS011;21813;49.686;21.766;2022-08-04T14:39:39;0.98;;;0.95;;
35225;SDS011;21813;49.686;21.766;2022-08-04T14:42:11;3.25;;;0.95;;
35225;SDS011;21813;49.686;21.766;2022-08-04T14:44:54;7.85;;;1.30;;
35225;SDS011;21813;49.686;21.766;2022-08-04T14:50:10;2.15;;;1.10;;
35225;SDS011;21813;49.686;21.766;2022-08-04T14:52:37;4.28;;;1.48;;
35225;SDS011;21813;49.686;21.766;2022-08-04T14:55:20;2.05;;;1.30;;
35225;SDS011;21813;49.686;21.766;2022-08-04T14:57:49;2.15;;;1.25;;
35225;SDS011;21813;49.686;21.766;2022-08-04T15:00:25;3.95;;;1.20;;
35225;SDS011;21813;49.686;21.766;2022-08-04T15:02:59;2.08;;;1.10;;
35225;SDS011;21813;49.686;21.766;2022-08-04T15:07:58;1.30;;;1.20;;
35225;SDS011;21813;49.686;21.766;2022-08-04T15:10:24;2.08;;;1.23;;
35225;SDS011;21813;49.686;21.766;2022-08-04T15:12:50;3.13;;;1.27;;
35225;SDS011;21813;49.686;21.766;2022-08-04T15:15:22;4.53;;;1.60;;
35225;SDS011;21813;49.686;21.766;2022-08-04T15:17:49;2.92;;;1.45;;
35225;SDS011;21813;49.686;21.766;2022-08-04T15:20:40;4.43;;;1.13;;
35225;SDS011;21813;49.686;21.766;2022-08-04T15:23:15;2.10;;;1.10;;
35225;SDS011;21813;49.686;21.766;2022-08-04T15:26:04;4.03;;;1.23;;
35225;SDS011;21813;49.686;21.766;2022-08-04T15:28:33;3.22;;;1.48;;
35225;SDS011;21813;49.686;21.766;2022-08-04T15:31:06;1.38;;;1.00;;
35225;SDS011;21813;49.686;21.766;2022-08-04T15:33:39;5.13;;;1.40;;
35225;SDS011;21813;49.686;21.766;2022-08-04T15:42:08;1.80;;;1.38;;
35225;SDS011;21813;49.686;21.766;2022-08-04T15:47:16;1.60;;;1.38;;
35225;SDS011;21813;49.686;21.766;2022-08-04T15:49:43;4.15;;;1.45;;
35225;SDS011;21813;49.686;21.766;2022-08-04T15:52:11;4.18;;;1.30;;
35225;SDS011;21813;49.686;21.766;2022-08-04T15:54:42;4.72;;;1.17;;
35225;SDS011;21813;49.686;21.766;2022-08-04T15:57:08;1.48;;;1.10;;
35225;SDS011;21813;49.686;21.766;2022-08-04T16:13:02;4.85;;;1.40;;
35225;SDS011;21813;49.686;21.766;2022-08-04T16:15:37;3.72;;;1.55;;
35225;SDS011;21813;49.686;21.766;2022-08-04T16:18:10;4.32;;;1.20;;
35225;SDS011;21813;49.686;21.766;2022-08-04T16:20:58;3.63;;;1.40;;
35225;SDS011;21813;49.686;21.766;2022-08-04T16:32:18;2.67;;;1.45;;
35225;SDS011;21813;49.686;21.766;2022-08-04T16:34:57;1.52;;;1.10;;
35225;SDS011;21813;49.686;21.766;2022-08-04T16:40:27;4.78;;;1.83;;
35225;SDS011;21813;49.686;21.766;2022-08-04T16:43:13;1.42;;;1.25;;
35225;SDS011;21813;49.686;21.766;2022-08-04T16:48:36;4.95;;;1.25;;
35225;SDS011;21813;49.686;21.766;2022-08-04T16:51:04;1.40;;;1.30;;
35225;SDS011;21813;49.686;21.766;2022-08-04T16:53:44;2.05;;;1.38;;
35225;SDS011;21813;49.686;21.766;2022-08-04T16:56:17;3.75;;;1.85;;
35225;SDS011;21813;49.686;21.766;2022-08-04T16:58:46;7.95;;;2.03;;
35225;SDS011;21813;49.686;21.766;2022-08-04T17:01:52;3.60;;;1.85;;
35225;SDS011;21813;49.686;21.766;2022-08-04T17:04:33;3.28;;;1.83;;
35225;SDS011;21813;49.686;21.766;2022-08-04T17:07:03;3.63;;;1.70;;
35225;SDS011;21813;49.686;21.766;2022-08-04T17:09:35;5.20;;;1.67;;
35225;SDS011;21813;49.686;21.766;2022-08-04T17:12:07;4.38;;;1.67;;
35225;SDS011;21813;49.686;21.766;2022-08-04T17:14:33;3.20;;;1.95;;
35225;SDS011;21813;49.686;21.766;2022-08-04T17:17:15;2.80;;;1.70;;
35225;SDS011;21813;49.686;21.766;2022-08-04T17:19:53;5.05;;;1.70;;
35225;SDS011;21813;49.686;21.766;2022-08-04T17:22:19;6.68;;;1.95;;
35225;SDS011;21813;49.686;21.766;2022-08-04T17:24:45;6.93;;;1.98;;
35225;SDS011;21813;49.686;21.766;2022-08-04T17:27:18;4.25;;;1.98;;
35225;SDS011;21813;49.686;21.766;2022-08-04T17:29:57;6.15;;;2.05;;
35225;SDS011;21813;49.686;21.766;2022-08-04T17:32:23;4.60;;;1.70;;
35225;SDS011;21813;49.686;21.766;2022-08-04T17:34:57;5.28;;;2.13;;
35225;SDS011;21813;49.686;21.766;2022-08-04T17:37:47;6.38;;;1.77;;
35225;SDS011;21813;49.686;21.766;2022-08-04T17:40:14;5.53;;;1.90;;
35225;SDS011;21813;49.686;21.766;2022-08-04T17:42:45;3.42;;;1.83;;
35225;SDS011;21813;49.686;21.766;2022-08-04T17:45:17;7.90;;;2.10;;
35225;SDS011;21813;49.686;21.766;2022-08-04T17:47:55;6.32;;;3.10;;
35225;SDS011;21813;49.686;21.766;2022-08-04T17:50:33;7.63;;;2.80;;
35225;SDS011;21813;49.686;21.766;2022-08-04T17:53:17;6.32;;;2.70;;
35225;SDS011;21813;49.686;21.766;2022-08-04T17:56:32;5.95;;;3.20;;
35225;SDS011;21813;49.686;21.766;2022-08-04T17:59:10;12.60;;;3.28;;
35225;SDS011;21813;49.686;21.766;2022-08-04T18:04:33;12.57;;;3.60;;
35225;SDS011;21813;49.686;21.766;2022-08-04T18:07:06;14.43;;;4.47;;
35225;SDS011;21813;49.686;21.766;2022-08-04T18:09:52;14.68;;;3.38;;
35225;SDS011;21813;49.686;21.766;2022-08-04T18:12:34;19.83;;;5.47;;
35225;SDS011;21813;49.686;21.766;2022-08-04T18:15:06;12.93;;;4.80;;
35225;SDS011;21813;49.686;21.766;2022-08-04T18:17:42;19.42;;;5.88;;
35225;SDS011;21813;49.686;21.766;2022-08-04T18:20:23;9.43;;;4.15;;
35225;SDS011;21813;49.686;21.766;2022-08-04T18:22:50;13.50;;;3.97;;
35225;SDS011;21813;49.686;21.766;2022-08-04T18:25:17;15.27;;;4.80;;
35225;SDS011;21813;49.686;21.766;2022-08-04T18:27:52;23.83;;;10.13;;
35225;SDS011;21813;49.686;21.766;2022-08-04T18:30:25;18.17;;;9.10;;
35225;SDS011;21813;49.686;21.766;2022-08-04T18:32:53;20.45;;;10.88;;
35225;SDS011;21813;49.686;21.766;2022-08-04T18:35:32;16.05;;;9.93;;
35225;SDS011;21813;49.686;21.766;2022-08-04T18:41:24;13.73;;;7.68;;
35225;SDS011;21813;49.686;21.766;2022-08-04T18:43:58;25.45;;;14.68;;
35225;SDS011;21813;49.686;21.766;2022-08-04T18:46:37;13.63;;;5.45;;
35225;SDS011;21813;49.686;21.766;2022-08-04T18:49:03;8.98;;;5.07;;
35225;SDS011;21813;49.686;21.766;2022-08-04T18:51:32;26.08;;;12.98;;
35225;SDS011;21813;49.686;21.766;2022-08-04T18:53:58;11.23;;;6.35;;
35225;SDS011;21813;49.686;21.766;2022-08-04T18:56:24;18.92;;;8.30;;
35225;SDS011;21813;49.686;21.766;2022-08-04T18:59:20;7.97;;;4.75;;
35225;SDS011;21813;49.686;21.766;2022-08-04T19:01:55;8.30;;;4.45;;
35225;SDS011;21813;49.686;21.766;2022-08-04T19:04:28;16.95;;;6.60;;
35225;SDS011;21813;49.686;21.766;2022-08-04T19:07:00;14.85;;;7.78;;
35225;SDS011;21813;49.686;21.766;2022-08-04T19:09:48;17.10;;;7.80;;
35225;SDS011;21813;49.686;21.766;2022-08-04T19:12:31;18.15;;;7.50;;
35225;SDS011;21813;49.686;21.766;2022-08-04T19:15:08;10.07;;;6.28;;
35225;SDS011;21813;49.686;21.766;2022-08-04T19:17:34;12.88;;;5.68;;
35225;SDS011;21813;49.686;21.766;2022-08-04T19:20:19;9.57;;;5.25;;
35225;SDS011;21813;49.686;21.766;2022-08-04T19:22:45;10.25;;;5.35;;
35225;SDS011;21813;49.686;21.766;2022-08-04T19:25:13;7.88;;;4.47;;
35225;SDS011;21813;49.686;21.766;2022-08-04T19:27:39;8.80;;;4.68;;
35225;SDS011;21813;49.686;21.766;2022-08-04T19:30:15;7.18;;;4.82;;
35225;SDS011;21813;49.686;21.766;2022-08-04T19:32:47;8.10;;;4.88;;
35225;SDS011;21813;49.686;21.766;2022-08-04T19:35:12;9.00;;;5.10;;
35225;SDS011;21813;49.686;21.766;2022-08-04T19:37:39;9.77;;;5.10;;
35225;SDS011;21813;49.686;21.766;2022-08-04T19:40:08;13.93;;;5.43;;
35225;SDS011;21813;49.686;21.766;2022-08-04T19:42:36;9.15;;;5.80;;
35225;SDS011;21813;49.686;21.766;2022-08-04T19:45:03;11.15;;;5.00;;
35225;SDS011;21813;49.686;21.766;2022-08-04T19:47:30;8.13;;;4.65;;
35225;SDS011;21813;49.686;21.766;2022-08-04T19:49:56;10.45;;;5.30;;
35225;SDS011;21813;49.686;21.766;2022-08-04T19:52:22;8.65;;;4.75;;
35225;SDS011;21813;49.686;21.766;2022-08-04T19:54:51;16.33;;;4.80;;
35225;SDS011;21813;49.686;21.766;2022-08-04T19:57:17;12.88;;;5.05;;
35225;SDS011;21813;49.686;21.766;2022-08-04T19:59:52;10.95;;;5.10;;
35225;SDS011;21813;49.686;21.766;2022-08-04T20:02:19;10.73;;;5.30;;
35225;SDS011;21813;49.686;21.766;2022-08-04T20:04:45;11.30;;;5.50;;
35225;SDS011;21813;49.686;21.766;2022-08-04T20:07:10;9.43;;;5.35;;
35225;SDS011;21813;49.686;21.766;2022-08-04T20:09:36;11.63;;;4.88;;
35225;SDS011;21813;49.686;21.766;2022-08-04T20:12:02;9.43;;;5.30;;
35225;SDS011;21813;49.686;21.766;2022-08-04T20:14:28;9.30;;;5.50;;
35225;SDS011;21813;49.686;21.766;2022-08-04T20:16:54;13.73;;;5.95;;
35225;SDS011;21813;49.686;21.766;2022-08-04T20:19:23;12.85;;;6.20;;
35225;SDS011;21813;49.686;21.766;2022-08-04T20:21:56;14.05;;;7.25;;
35225;SDS011;21813;49.686;21.766;2022-08-04T20:24:24;8.30;;;6.00;;
35225;SDS011;21813;49.686;21.766;2022-08-04T20:26:50;13.32;;;6.97;;
35225;SDS011;21813;49.686;21.766;2022-08-04T20:29:15;9.75;;;5.90;;
35225;SDS011;21813;49.686;21.766;2022-08-04T20:31:44;16.63;;;7.13;;
35225;SDS011;21813;49.686;21.766;2022-08-04T20:34:10;10.95;;;6.53;;
35225;SDS011;21813;49.686;21.766;2022-08-04T20:36:36;14.65;;;7.10;;
35225;SDS011;21813;49.686;21.766;2022-08-04T20:39:02;16.77;;;7.10;;
35225;SDS011;21813;49.686;21.766;2022-08-04T20:41:28;12.27;;;7.13;;
35225;SDS011;21813;49.686;21.766;2022-08-04T20:43:53;15.20;;;7.63;;
35225;SDS011;21813;49.686;21.766;2022-08-04T20:46:20;9.70;;;6.65;;
35225;SDS011;21813;49.686;21.766;2022-08-04T20:48:45;12.43;;;6.90;;
35225;SDS011;21813;49.686;21.766;2022-08-04T20:51:13;11.07;;;6.72;;
35225;SDS011;21813;49.686;21.766;2022-08-04T20:53:45;14.00;;;7.30;;